Terminal Aerodrome Forecast
Issued by NWS

Home | Current Version | Previous Version | Text Only | Print | Product List | Glossary On
Versions: 1 2 3 4 5 6 7 8 9 10 11 12 13 14 15 16 17 18
664
FTUS43 KDLH 090202 AAA
TAFHIB
TAF AMD
KHIB 090202Z 0902/0924 32014G20KT 6SM -SN SCT025 OVC040
      TEMPO 0902/0904 1SM -SN OVC025
     FM090400 33014G20KT 6SM -SN BKN025 OVC050
     FM091100 34012G20KT P6SM SCT030 BKN050
     FM091500 34015G24KT P6SM SCT080=

USA.gov is the U.S. government's official web portal to all federal, state and local government web resources and services.